sensor_id;sensor_type;location;lat;lon;timestamp;pressure;altitude;pressure_sealevel;temperature;humidity
18527;BME280;9393;42.158;24.748;2022-09-20T00:02:41;99423.13;;;17.38;51.47
18527;BME280;9393;42.158;24.748;2022-09-20T00:05:45;99424.44;;;17.48;51.26
18527;BME280;9393;42.158;24.748;2022-09-20T00:08:49;99426.66;;;17.24;51.98
18527;BME280;9393;42.158;24.748;2022-09-20T00:11:53;99427.00;;;17.42;51.75
18527;BME280;9393;42.158;24.748;2022-09-20T00:14:57;99424.63;;;17.26;51.89
18527;BME280;9393;42.158;24.748;2022-09-20T00:18:00;99427.00;;;17.21;51.78
18527;BME280;9393;42.158;24.748;2022-09-20T00:21:04;99421.03;;;17.12;52.06
18527;BME280;9393;42.158;24.748;2022-09-20T00:24:08;99420.59;;;17.08;52.21
18527;BME280;9393;42.158;24.748;2022-09-20T00:27:13;99425.16;;;17.00;52.16
18527;BME280;9393;42.158;24.748;2022-09-20T00:30:17;99409.78;;;17.03;52.23
18527;BME280;9393;42.158;24.748;2022-09-20T00:33:20;99420.00;;;16.92;52.38
18527;BME280;9393;42.158;24.748;2022-09-20T00:36:24;99420.84;;;16.78;52.83
18527;BME280;9393;42.158;24.748;2022-09-20T00:39:28;99422.56;;;16.85;52.64
18527;BME280;9393;42.158;24.748;2022-09-20T00:42:33;99415.66;;;16.84;52.70
18527;BME280;9393;42.158;24.748;2022-09-20T00:45:37;99416.31;;;16.72;52.98
18527;BME280;9393;42.158;24.748;2022-09-20T00:48:40;99413.63;;;16.86;52.59
18527;BME280;9393;42.158;24.748;2022-09-20T00:51:47;99420.19;;;16.90;52.57
18527;BME280;9393;42.158;24.748;2022-09-20T00:54:51;99425.50;;;16.61;53.05
18527;BME280;9393;42.158;24.748;2022-09-20T00:57:57;99433.94;;;16.86;52.54
18527;BME280;9393;42.158;24.748;2022-09-20T01:01:03;99427.16;;;16.98;52.47
18527;BME280;9393;42.158;24.748;2022-09-20T01:04:07;99422.72;;;16.98;52.62
18527;BME280;9393;42.158;24.748;2022-09-20T01:07:13;99410.91;;;16.94;52.91
18527;BME280;9393;42.158;24.748;2022-09-20T01:10:17;99410.16;;;17.00;52.93
18527;BME280;9393;42.158;24.748;2022-09-20T01:13:22;99407.59;;;16.71;53.85
18527;BME280;9393;42.158;24.748;2022-09-20T01:16:26;99413.41;;;16.81;53.77
18527;BME280;9393;42.158;24.748;2022-09-20T01:19:35;99411.50;;;16.75;54.17
18527;BME280;9393;42.158;24.748;2022-09-20T01:22:52;99412.59;;;16.66;54.67
18527;BME280;9393;42.158;24.748;2022-09-20T01:26:37;99413.22;;;16.53;55.00
18527;BME280;9393;42.158;24.748;2022-09-20T01:29:56;99410.25;;;16.56;55.12
18527;BME280;9393;42.158;24.748;2022-09-20T01:33:08;99422.03;;;16.46;55.33
18527;BME280;9393;42.158;24.748;2022-09-20T01:36:17;99425.75;;;16.37;55.54
18527;BME280;9393;42.158;24.748;2022-09-20T01:39:32;99412.88;;;16.56;54.89
18527;BME280;9393;42.158;24.748;2022-09-20T01:42:40;99406.88;;;16.62;54.69
18527;BME280;9393;42.158;24.748;2022-09-20T01:45:47;99418.88;;;16.65;54.68
18527;BME280;9393;42.158;24.748;2022-09-20T01:48:56;99420.94;;;16.40;55.21
18527;BME280;9393;42.158;24.748;2022-09-20T01:55:53;99419.00;;;16.34;55.28
18527;BME280;9393;42.158;24.748;2022-09-20T02:03:07;99419.66;;;16.51;54.43
18527;BME280;9393;42.158;24.748;2022-09-20T02:06:36;99420.13;;;16.69;53.84
18527;BME280;9393;42.158;24.748;2022-09-20T02:10:08;99436.50;;;16.64;54.09
18527;BME280;9393;42.158;24.748;2022-09-20T02:13:27;99430.41;;;16.64;53.84
18527;BME280;9393;42.158;24.748;2022-09-20T02:16:47;99438.09;;;16.51;53.43
18527;BME280;9393;42.158;24.748;2022-09-20T02:20:10;99432.09;;;16.42;53.63
18527;BME280;9393;42.158;24.748;2022-09-20T02:23:22;99440.69;;;16.22;53.74
18527;BME280;9393;42.158;24.748;2022-09-20T02:26:38;99435.63;;;16.35;53.53
18527;BME280;9393;42.158;24.748;2022-09-20T02:29:49;99431.25;;;16.12;53.40
18527;BME280;9393;42.158;24.748;2022-09-20T02:33:10;99442.25;;;16.45;52.88
18527;BME280;9393;42.158;24.748;2022-09-20T02:36:29;99437.25;;;16.06;53.00
18527;BME280;9393;42.158;24.748;2022-09-20T02:39:44;99442.81;;;16.26;52.68
18527;BME280;9393;42.158;24.748;2022-09-20T02:42:57;99446.50;;;16.32;52.09
18527;BME280;9393;42.158;24.748;2022-09-20T02:46:09;99452.88;;;16.23;52.14
18527;BME280;9393;42.158;24.748;2022-09-20T02:49:21;99450.56;;;16.05;52.55
18527;BME280;9393;42.158;24.748;2022-09-20T02:52:34;99457.25;;;15.93;52.91
18527;BME280;9393;42.158;24.748;2022-09-20T02:55:46;99459.19;;;16.13;52.37
18527;BME280;9393;42.158;24.748;2022-09-20T02:58:58;99463.31;;;15.93;52.96
18527;BME280;9393;42.158;24.748;2022-09-20T03:02:09;99464.72;;;16.04;53.06
18527;BME280;9393;42.158;24.748;2022-09-20T03:05:21;99469.88;;;15.97;53.15
18527;BME280;9393;42.158;24.748;2022-09-20T03:08:33;99465.63;;;15.74;53.91
18527;BME280;9393;42.158;24.748;2022-09-20T03:11:45;99467.19;;;15.83;53.74
18527;BME280;9393;42.158;24.748;2022-09-20T03:15:02;99476.84;;;15.68;54.28
18527;BME280;9393;42.158;24.748;2022-09-20T03:18:14;99487.84;;;15.71;54.49
18527;BME280;9393;42.158;24.748;2022-09-20T03:21:28;99486.31;;;15.54;54.75
18527;BME280;9393;42.158;24.748;2022-09-20T03:24:46;99485.56;;;15.68;54.34
18527;BME280;9393;42.158;24.748;2022-09-20T03:28:00;99483.75;;;15.69;54.20
18527;BME280;9393;42.158;24.748;2022-09-20T03:31:17;99477.25;;;15.56;54.39
18527;BME280;9393;42.158;24.748;2022-09-20T03:34:32;99487.41;;;15.59;54.27
18527;BME280;9393;42.158;24.748;2022-09-20T03:37:49;99476.09;;;15.28;55.27
18527;BME280;9393;42.158;24.748;2022-09-20T03:41:04;99480.31;;;15.37;55.06
18527;BME280;9393;42.158;24.748;2022-09-20T03:44:35;99472.75;;;15.11;55.70
18527;BME280;9393;42.158;24.748;2022-09-20T03:48:12;99476.06;;;15.05;55.90
18527;BME280;9393;42.158;24.748;2022-09-20T03:51:21;99469.75;;;15.14;55.73
18527;BME280;9393;42.158;24.748;2022-09-20T03:55:02;99479.53;;;14.98;56.55
18527;BME280;9393;42.158;24.748;2022-09-20T03:58:26;99491.22;;;15.26;55.72
18527;BME280;9393;42.158;24.748;2022-09-20T04:05:14;99496.88;;;15.07;56.26
18527;BME280;9393;42.158;24.748;2022-09-20T04:08:32;99487.53;;;15.04;56.37
18527;BME280;9393;42.158;24.748;2022-09-20T04:11:46;99487.44;;;14.90;57.06
18527;BME280;9393;42.158;24.748;2022-09-20T04:15:07;99502.06;;;15.23;55.85
18527;BME280;9393;42.158;24.748;2022-09-20T04:18:26;99502.94;;;15.15;55.62
18527;BME280;9393;42.158;24.748;2022-09-20T04:21:36;99507.06;;;15.41;54.52
18527;BME280;9393;42.158;24.748;2022-09-20T04:24:48;99513.31;;;15.40;54.74
18527;BME280;9393;42.158;24.748;2022-09-20T04:27:59;99505.38;;;15.48;54.32
18527;BME280;9393;42.158;24.748;2022-09-20T04:31:26;99508.28;;;15.61;54.27
18527;BME280;9393;42.158;24.748;2022-09-20T04:34:37;99514.53;;;15.60;54.44
18527;BME280;9393;42.158;24.748;2022-09-20T04:38:00;99513.06;;;15.80;53.80
18527;BME280;9393;42.158;24.748;2022-09-20T04:41:17;99524.63;;;15.94;53.44
18527;BME280;9393;42.158;24.748;2022-09-20T04:44:48;99525.63;;;15.70;54.06
18527;BME280;9393;42.158;24.748;2022-09-20T04:48:27;99523.13;;;15.46;54.38
18527;BME280;9393;42.158;24.748;2022-09-20T04:52:08;99528.38;;;15.54;53.93
18527;BME280;9393;42.158;24.748;2022-09-20T04:59:05;99538.34;;;15.58;53.38
18527;BME280;9393;42.158;24.748;2022-09-20T05:02:35;99544.66;;;15.72;53.48
18527;BME280;9393;42.158;24.748;2022-09-20T05:05:56;99550.22;;;15.77;53.46
18527;BME280;9393;42.158;24.748;2022-09-20T05:09:18;99548.34;;;15.63;53.42
18527;BME280;9393;42.158;24.748;2022-09-20T05:13:00;99541.53;;;15.99;52.65
18527;BME280;9393;42.158;24.748;2022-09-20T05:16:17;99543.75;;;15.88;53.06
18527;BME280;9393;42.158;24.748;2022-09-20T05:19:30;99539.97;;;16.28;51.84
18527;BME280;9393;42.158;24.748;2022-09-20T05:23:12;99544.69;;;15.95;52.83
18527;BME280;9393;42.158;24.748;2022-09-20T05:26:30;99540.31;;;16.47;51.82
18527;BME280;9393;42.158;24.748;2022-09-20T05:29:46;99542.09;;;16.84;50.80
18527;BME280;9393;42.158;24.748;2022-09-20T05:33:03;99541.97;;;16.26;51.80
18527;BME280;9393;42.158;24.748;2022-09-20T05:36:16;99560.06;;;16.43;51.66
18527;BME280;9393;42.158;24.748;2022-09-20T05:39:35;99538.16;;;16.65;51.36
18527;BME280;9393;42.158;24.748;2022-09-20T05:42:43;99545.97;;;16.59;51.26
18527;BME280;9393;42.158;24.748;2022-09-20T05:46:01;99555.50;;;16.23;52.16
18527;BME280;9393;42.158;24.748;2022-09-20T05:49:12;99554.44;;;16.46;51.70
18527;BME280;9393;42.158;24.748;2022-09-20T05:52:40;99562.28;;;16.54;51.76
18527;BME280;9393;42.158;24.748;2022-09-20T05:55:57;99565.97;;;16.45;51.82
18527;BME280;9393;42.158;24.748;2022-09-20T05:59:15;99570.56;;;16.66;51.55
18527;BME280;9393;42.158;24.748;2022-09-20T06:02:31;99585.09;;;17.50;49.73
18527;BME280;9393;42.158;24.748;2022-09-20T06:05:45;99576.00;;;17.38;49.95
18527;BME280;9393;42.158;24.748;2022-09-20T06:09:18;99569.06;;;17.51;49.83
18527;BME280;9393;42.158;24.748;2022-09-20T06:12:38;99571.31;;;17.04;50.31
18527;BME280;9393;42.158;24.748;2022-09-20T06:15:52;99581.78;;;17.12;49.56
18527;BME280;9393;42.158;24.748;2022-09-20T06:19:05;99574.13;;;17.17;49.59
18527;BME280;9393;42.158;24.748;2022-09-20T06:22:18;99568.97;;;16.94;49.63
18527;BME280;9393;42.158;24.748;2022-09-20T06:25:25;99569.88;;;16.87;49.83
18527;BME280;9393;42.158;24.748;2022-09-20T06:28:34;99576.59;;;17.04;48.96
18527;BME280;9393;42.158;24.748;2022-09-20T06:31:42;99583.78;;;16.95;48.83
18527;BME280;9393;42.158;24.748;2022-09-20T06:34:45;99587.50;;;17.15;48.17
18527;BME280;9393;42.158;24.748;2022-09-20T06:37:52;99576.69;;;17.10;48.02
18527;BME280;9393;42.158;24.748;2022-09-20T06:41:14;99590.84;;;16.95;48.20
18527;BME280;9393;42.158;24.748;2022-09-20T06:44:33;99594.41;;;17.02;47.88
18527;BME280;9393;42.158;24.748;2022-09-20T06:47:38;99595.94;;;16.96;47.79
18527;BME280;9393;42.158;24.748;2022-09-20T06:50:42;99590.59;;;17.04;47.77
18527;BME280;9393;42.158;24.748;2022-09-20T06:53:46;99602.41;;;17.23;47.65
18527;BME280;9393;42.158;24.748;2022-09-20T06:56:50;99603.75;;;17.34;46.65
18527;BME280;9393;42.158;24.748;2022-09-20T06:59:55;99614.22;;;18.13;45.33
18527;BME280;9393;42.158;24.748;2022-09-20T07:02:58;99604.19;;;18.73;43.70
18527;BME280;9393;42.158;24.748;2022-09-20T07:06:01;99602.81;;;19.11;42.77
18527;BME280;9393;42.158;24.748;2022-09-20T07:09:05;99604.09;;;19.22;41.36
18527;BME280;9393;42.158;24.748;2022-09-20T07:12:09;99606.38;;;19.31;40.83
18527;BME280;9393;42.158;24.748;2022-09-20T07:15:14;99609.66;;;19.33;41.08
18527;BME280;9393;42.158;24.748;2022-09-20T07:18:17;99609.38;;;19.22;40.84
18527;BME280;9393;42.158;24.748;2022-09-20T07:21:21;99608.38;;;18.88;41.19
18527;BME280;9393;42.158;24.748;2022-09-20T07:24:24;99604.09;;;19.22;41.47
18527;BME280;9393;42.158;24.748;2022-09-20T07:27:28;99607.72;;;19.14;41.32
18527;BME280;9393;42.158;24.748;2022-09-20T07:30:32;99606.63;;;19.02;41.92
18527;BME280;9393;42.158;24.748;2022-09-20T07:33:36;99609.50;;;19.07;41.45
18527;BME280;9393;42.158;24.748;2022-09-20T07:36:39;99617.75;;;19.66;40.34
18527;BME280;9393;42.158;24.748;2022-09-20T07:39:42;99617.06;;;19.44;40.08
18527;BME280;9393;42.158;24.748;2022-09-20T07:42:47;99613.00;;;20.15;39.14
18527;BME280;9393;42.158;24.748;2022-09-20T07:45:57;99614.91;;;20.48;38.68
18527;BME280;9393;42.158;24.748;2022-09-20T07:49:01;99612.25;;;20.61;38.21
18527;BME280;9393;42.158;24.748;2022-09-20T07:52:04;99607.75;;;20.42;38.69
18527;BME280;9393;42.158;24.748;2022-09-20T07:55:08;99610.59;;;20.80;38.43
18527;BME280;9393;42.158;24.748;2022-09-20T07:58:11;99605.94;;;20.69;38.41
18527;BME280;9393;42.158;24.748;2022-09-20T08:01:16;99605.09;;;20.88;38.10
18527;BME280;9393;42.158;24.748;2022-09-20T08:04:21;99602.00;;;21.10;37.63
18527;BME280;9393;42.158;24.748;2022-09-20T08:07:25;99605.84;;;21.08;37.71
18527;BME280;9393;42.158;24.748;2022-09-20T08:10:28;99597.44;;;21.44;37.41
18527;BME280;9393;42.158;24.748;2022-09-20T08:13:34;99599.50;;;21.29;37.45
18527;BME280;9393;42.158;24.748;2022-09-20T08:17:00;99591.94;;;21.32;36.93
18527;BME280;9393;42.158;24.748;2022-09-20T08:20:04;99586.63;;;21.32;37.03
18527;BME280;9393;42.158;24.748;2022-09-20T08:23:07;99582.94;;;21.84;36.84
18527;BME280;9393;42.158;24.748;2022-09-20T08:26:26;99574.72;;;21.99;36.10
18527;BME280;9393;42.158;24.748;2022-09-20T08:29:29;99575.53;;;22.49;36.03
18527;BME280;9393;42.158;24.748;2022-09-20T08:32:37;99564.41;;;22.09;35.62
18527;BME280;9393;42.158;24.748;2022-09-20T08:35:41;99572.72;;;22.44;35.17
18527;BME280;9393;42.158;24.748;2022-09-20T08:38:45;99557.66;;;22.13;35.39
18527;BME280;9393;42.158;24.748;2022-09-20T08:42:13;99557.69;;;22.31;35.13
18527;BME280;9393;42.158;24.748;2022-09-20T08:45:22;99558.63;;;22.19;34.98
18527;BME280;9393;42.158;24.748;2022-09-20T08:48:43;99559.81;;;22.23;34.78
18527;BME280;9393;42.158;24.748;2022-09-20T08:51:48;99555.41;;;22.84;33.91
18527;BME280;9393;42.158;24.748;2022-09-20T08:54:53;99553.56;;;23.21;32.63
18527;BME280;9393;42.158;24.748;2022-09-20T08:57:58;99549.81;;;22.92;33.32
18527;BME280;9393;42.158;24.748;2022-09-20T09:01:22;99549.03;;;23.40;32.26
18527;BME280;9393;42.158;24.748;2022-09-20T09:04:33;99544.53;;;23.40;32.10
18527;BME280;9393;42.158;24.748;2022-09-20T09:07:37;99539.28;;;23.34;32.21
18527;BME280;9393;42.158;24.748;2022-09-20T09:10:42;99542.63;;;23.47;31.45
18527;BME280;9393;42.158;24.748;2022-09-20T09:13:51;99542.28;;;23.55;31.63
18527;BME280;9393;42.158;24.748;2022-09-20T09:16:55;99548.25;;;23.69;31.67
18527;BME280;9393;42.158;24.748;2022-09-20T09:20:16;99543.38;;;24.07;31.62
18527;BME280;9393;42.158;24.748;2022-09-20T09:23:26;99529.34;;;23.59;31.13
18527;BME280;9393;42.158;24.748;2022-09-20T09:26:35;99534.06;;;23.75;31.05
18527;BME280;9393;42.158;24.748;2022-09-20T09:29:47;99522.41;;;24.11;30.15
18527;BME280;9393;42.158;24.748;2022-09-20T09:32:51;99517.19;;;24.04;31.35
18527;BME280;9393;42.158;24.748;2022-09-20T09:35:59;99522.94;;;24.31;30.56
18527;BME280;9393;42.158;24.748;2022-09-20T09:39:14;99516.75;;;24.07;30.74
18527;BME280;9393;42.158;24.748;2022-09-20T09:42:19;99514.31;;;24.06;30.42
18527;BME280;9393;42.158;24.748;2022-09-20T09:45:27;99516.94;;;24.47;30.32
18527;BME280;9393;42.158;24.748;2022-09-20T09:48:31;99521.88;;;24.21;29.85
18527;BME280;9393;42.158;24.748;2022-09-20T09:51:38;99513.47;;;23.82;30.89
18527;BME280;9393;42.158;24.748;2022-09-20T09:54:45;99513.75;;;24.27;30.60
18527;BME280;9393;42.158;24.748;2022-09-20T09:57:54;99510.09;;;24.40;30.32
18527;BME280;9393;42.158;24.748;2022-09-20T10:01:03;99510.31;;;23.74;30.89
18527;BME280;9393;42.158;24.748;2022-09-20T10:04:14;99503.84;;;23.93;31.18
18527;BME280;9393;42.158;24.748;2022-09-20T10:07:26;99491.31;;;24.58;30.28
18527;BME280;9393;42.158;24.748;2022-09-20T10:10:37;99500.06;;;24.93;29.30
18527;BME280;9393;42.158;24.748;2022-09-20T10:13:53;99499.66;;;24.61;29.54
18527;BME280;9393;42.158;24.748;2022-09-20T10:17:16;99499.31;;;24.23;30.44
18527;BME280;9393;42.158;24.748;2022-09-20T10:20:31;99495.34;;;24.60;29.75
18527;BME280;9393;42.158;24.748;2022-09-20T10:23:57;99487.91;;;24.04;30.29
18527;BME280;9393;42.158;24.748;2022-09-20T10:27:20;99480.41;;;24.13;30.44
18527;BME280;9393;42.158;24.748;2022-09-20T10:30:30;99482.03;;;24.49;30.30
18527;BME280;9393;42.158;24.748;2022-09-20T10:33:43;99478.88;;;24.75;29.45
18527;BME280;9393;42.158;24.748;2022-09-20T10:36:51;99483.75;;;24.78;28.69
18527;BME280;9393;42.158;24.748;2022-09-20T10:40:02;99480.16;;;24.38;29.03
18527;BME280;9393;42.158;24.748;2022-09-20T10:43:17;99483.66;;;24.27;30.25
18527;BME280;9393;42.158;24.748;2022-09-20T10:46:29;99479.22;;;24.90;29.53
18527;BME280;9393;42.158;24.748;2022-09-20T10:49:41;99474.94;;;24.78;28.83
18527;BME280;9393;42.158;24.748;2022-09-20T10:53:02;99476.56;;;24.55;29.30
18527;BME280;9393;42.158;24.748;2022-09-20T10:56:21;99462.97;;;24.69;29.53
18527;BME280;9393;42.158;24.748;2022-09-20T10:59:36;99459.25;;;24.93;28.78
18527;BME280;9393;42.158;24.748;2022-09-20T11:02:56;99461.72;;;24.01;30.02
18527;BME280;9393;42.158;24.748;2022-09-20T11:06:13;99451.84;;;24.83;29.41
18527;BME280;9393;42.158;24.748;2022-09-20T11:09:20;99442.72;;;24.56;29.01
18527;BME280;9393;42.158;24.748;2022-09-20T11:12:31;99446.78;;;25.10;29.43
18527;BME280;9393;42.158;24.748;2022-09-20T11:15:42;99440.44;;;25.28;29.73
18527;BME280;9393;42.158;24.748;2022-09-20T11:18:55;99448.81;;;24.80;29.16
18527;BME280;9393;42.158;24.748;2022-09-20T11:22:06;99441.97;;;24.95;29.11
18527;BME280;9393;42.158;24.748;2022-09-20T11:25:14;99434.72;;;24.68;29.32
18527;BME280;9393;42.158;24.748;2022-09-20T11:28:27;99428.63;;;24.95;28.69
18527;BME280;9393;42.158;24.748;2022-09-20T11:31:37;99427.00;;;24.94;28.24
18527;BME280;9393;42.158;24.748;2022-09-20T11:34:49;99422.75;;;25.38;27.97
18527;BME280;9393;42.158;24.748;2022-09-20T11:38:01;99424.53;;;25.33;27.58
18527;BME280;9393;42.158;24.748;2022-09-20T11:41:11;99420.50;;;25.47;27.84
18527;BME280;9393;42.158;24.748;2022-09-20T11:44:18;99408.53;;;25.49;27.63
18527;BME280;9393;42.158;24.748;2022-09-20T11:47:24;99406.00;;;25.43;27.26
18527;BME280;9393;42.158;24.748;2022-09-20T11:51:04;99402.84;;;25.01;27.95
18527;BME280;9393;42.158;24.748;2022-09-20T11:57:59;99398.84;;;25.60;27.14
18527;BME280;9393;42.158;24.748;2022-09-20T12:01:11;99391.44;;;25.79;26.69
18527;BME280;9393;42.158;24.748;2022-09-20T12:04:19;99389.53;;;25.79;26.77
18527;BME280;9393;42.158;24.748;2022-09-20T12:07:42;99383.16;;;25.19;27.25
18527;BME280;9393;42.158;24.748;2022-09-20T12:10:54;99391.97;;;25.81;27.02
18527;BME280;9393;42.158;24.748;2022-09-20T12:14:02;99391.09;;;25.75;26.86
18527;BME280;9393;42.158;24.748;2022-09-20T12:21:13;99387.53;;;25.53;26.20
18527;BME280;9393;42.158;24.748;2022-09-20T12:24:20;99390.41;;;26.01;26.40
18527;BME280;9393;42.158;24.748;2022-09-20T12:27:54;99397.63;;;25.84;26.51
18527;BME280;9393;42.158;24.748;2022-09-20T12:31:36;99396.56;;;25.52;26.93
18527;BME280;9393;42.158;24.748;2022-09-20T12:34:41;99396.00;;;25.50;26.51
18527;BME280;9393;42.158;24.748;2022-09-20T12:37:44;99392.88;;;25.53;26.79
18527;BME280;9393;42.158;24.748;2022-09-20T12:40:58;99386.56;;;25.59;26.89
18527;BME280;9393;42.158;24.748;2022-09-20T12:44:05;99381.03;;;25.66;26.91
18527;BME280;9393;42.158;24.748;2022-09-20T12:47:26;99381.50;;;25.29;26.68
18527;BME280;9393;42.158;24.748;2022-09-20T12:50:32;99381.22;;;25.31;26.81
18527;BME280;9393;42.158;24.748;2022-09-20T12:54:01;99381.56;;;25.34;26.83
18527;BME280;9393;42.158;24.748;2022-09-20T12:57:16;99366.34;;;25.35;27.06
18527;BME280;9393;42.158;24.748;2022-09-20T13:00:32;99368.22;;;25.34;26.17
18527;BME280;9393;42.158;24.748;2022-09-20T13:03:38;99368.13;;;25.12;26.76
18527;BME280;9393;42.158;24.748;2022-09-20T13:06:43;99364.19;;;25.32;27.06
18527;BME280;9393;42.158;24.748;2022-09-20T13:09:47;99364.47;;;25.19;26.72
18527;BME280;9393;42.158;24.748;2022-09-20T13:12:56;99368.66;;;24.98;25.68
18527;BME280;9393;42.158;24.748;2022-09-20T13:16:02;99363.53;;;24.96;26.13
18527;BME280;9393;42.158;24.748;2022-09-20T13:19:14;99368.34;;;25.11;26.13
18527;BME280;9393;42.158;24.748;2022-09-20T13:22:22;99356.19;;;25.03;26.32
18527;BME280;9393;42.158;24.748;2022-09-20T13:25:27;99361.69;;;24.97;26.23
18527;BME280;9393;42.158;24.748;2022-09-20T13:28:36;99363.13;;;25.16;26.22
18527;BME280;9393;42.158;24.748;2022-09-20T13:31:42;99359.97;;;25.19;26.37
18527;BME280;9393;42.158;24.748;2022-09-20T13:34:45;99374.50;;;25.11;26.88
18527;BME280;9393;42.158;24.748;2022-09-20T13:37:55;99369.25;;;25.17;26.96
18527;BME280;9393;42.158;24.748;2022-09-20T13:41:03;99364.34;;;25.25;27.00
18527;BME280;9393;42.158;24.748;2022-09-20T13:44:15;99357.41;;;25.41;26.84
18527;BME280;9393;42.158;24.748;2022-09-20T13:47:24;99353.91;;;25.40;26.92
18527;BME280;9393;42.158;24.748;2022-09-20T13:50:29;99360.31;;;25.39;26.72
18527;BME280;9393;42.158;24.748;2022-09-20T13:53:35;99370.69;;;25.52;26.29
18527;BME280;9393;42.158;24.748;2022-09-20T13:56:43;99372.03;;;25.38;26.37
18527;BME280;9393;42.158;24.748;2022-09-20T13:59:46;99373.63;;;25.23;26.38
18527;BME280;9393;42.158;24.748;2022-09-20T14:02:51;99366.13;;;25.20;26.21
18527;BME280;9393;42.158;24.748;2022-09-20T14:05:58;99372.50;;;25.35;26.26
18527;BME280;9393;42.158;24.748;2022-09-20T14:09:06;99374.69;;;25.38;26.49
18527;BME280;9393;42.158;24.748;2022-09-20T14:12:12;99379.13;;;25.16;26.63
18527;BME280;9393;42.158;24.748;2022-09-20T14:15:16;99369.03;;;25.35;26.45
18527;BME280;9393;42.158;24.748;2022-09-20T14:18:19;99372.59;;;25.40;25.94
18527;BME280;9393;42.158;24.748;2022-09-20T14:21:26;99385.03;;;25.35;26.33
18527;BME280;9393;42.158;24.748;2022-09-20T14:24:33;99380.97;;;25.16;26.79
18527;BME280;9393;42.158;24.748;2022-09-20T14:27:38;99374.66;;;25.05;26.21
18527;BME280;9393;42.158;24.748;2022-09-20T14:30:41;99382.50;;;25.11;26.09
18527;BME280;9393;42.158;24.748;2022-09-20T14:33:47;99383.44;;;25.34;26.19
18527;BME280;9393;42.158;24.748;2022-09-20T14:37:02;99383.03;;;25.42;25.93
18527;BME280;9393;42.158;24.748;2022-09-20T14:40:19;99386.63;;;25.47;26.15
18527;BME280;9393;42.158;24.748;2022-09-20T14:43:27;99385.31;;;25.05;26.42
18527;BME280;9393;42.158;24.748;2022-09-20T14:46:34;99386.41;;;25.21;26.46
18527;BME280;9393;42.158;24.748;2022-09-20T14:49:43;99392.97;;;25.30;26.28
18527;BME280;9393;42.158;24.748;2022-09-20T14:52:46;99389.66;;;25.39;26.27
18527;BME280;9393;42.158;24.748;2022-09-20T14:56:09;99399.53;;;24.82;27.12
18527;BME280;9393;42.158;24.748;2022-09-20T14:59:22;99386.09;;;24.89;26.41
18527;BME280;9393;42.158;24.748;2022-09-20T15:02:26;99385.00;;;25.01;27.00
18527;BME280;9393;42.158;24.748;2022-09-20T15:05:29;99393.56;;;25.03;26.00
18527;BME280;9393;42.158;24.748;2022-09-20T15:08:33;99393.53;;;24.75;26.28
18527;BME280;9393;42.158;24.748;2022-09-20T15:11:39;99397.00;;;24.87;26.88
18527;BME280;9393;42.158;24.748;2022-09-20T15:14:42;99401.75;;;24.74;28.25
18527;BME280;9393;42.158;24.748;2022-09-20T15:17:46;99401.88;;;24.16;29.97
18527;BME280;9393;42.158;24.748;2022-09-20T15:20:50;99408.44;;;23.90;30.16
18527;BME280;9393;42.158;24.748;2022-09-20T15:23:53;99402.94;;;23.50;31.02
18527;BME280;9393;42.158;24.748;2022-09-20T15:26:58;99400.72;;;22.87;32.12
18527;BME280;9393;42.158;24.748;2022-09-20T15:30:01;99404.78;;;22.35;32.73
18527;BME280;9393;42.158;24.748;2022-09-20T15:33:04;99401.41;;;22.46;32.80
18527;BME280;9393;42.158;24.748;2022-09-20T15:36:09;99405.28;;;22.62;33.00
18527;BME280;9393;42.158;24.748;2022-09-20T15:39:12;99410.16;;;22.72;32.57
18527;BME280;9393;42.158;24.748;2022-09-20T15:42:17;99418.63;;;22.80;32.36
18527;BME280;9393;42.158;24.748;2022-09-20T15:45:22;99412.28;;;22.81;32.71
18527;BME280;9393;42.158;24.748;2022-09-20T15:48:28;99412.03;;;22.46;33.01
18527;BME280;9393;42.158;24.748;2022-09-20T15:51:32;99418.06;;;22.35;33.15
18527;BME280;9393;42.158;24.748;2022-09-20T15:54:37;99412.81;;;22.10;33.30
18527;BME280;9393;42.158;24.748;2022-09-20T15:57:42;99429.66;;;22.23;33.99
18527;BME280;9393;42.158;24.748;2022-09-20T16:00:45;99431.38;;;22.10;34.06
18527;BME280;9393;42.158;24.748;2022-09-20T16:03:50;99439.34;;;21.92;34.42
18527;BME280;9393;42.158;24.748;2022-09-20T16:06:54;99436.03;;;21.65;34.96
18527;BME280;9393;42.158;24.748;2022-09-20T16:09:57;99437.84;;;21.96;34.72
18527;BME280;9393;42.158;24.748;2022-09-20T16:13:02;99438.41;;;21.74;34.82
18527;BME280;9393;42.158;24.748;2022-09-20T16:16:06;99435.69;;;21.55;35.04
18527;BME280;9393;42.158;24.748;2022-09-20T16:19:10;99442.09;;;21.48;35.08
18527;BME280;9393;42.158;24.748;2022-09-20T16:22:21;99451.09;;;21.02;35.65
18527;BME280;9393;42.158;24.748;2022-09-20T16:25:25;99450.22;;;21.15;35.50
18527;BME280;9393;42.158;24.748;2022-09-20T16:28:29;99457.59;;;21.06;35.79
18527;BME280;9393;42.158;24.748;2022-09-20T16:31:35;99456.34;;;21.09;35.86
18527;BME280;9393;42.158;24.748;2022-09-20T16:34:40;99469.78;;;21.21;35.47
18527;BME280;9393;42.158;24.748;2022-09-20T16:37:50;99470.19;;;21.17;35.64
18527;BME280;9393;42.158;24.748;2022-09-20T16:40:53;99471.75;;;20.81;36.12
18527;BME280;9393;42.158;24.748;2022-09-20T16:44:02;99473.50;;;21.06;35.77
18527;BME280;9393;42.158;24.748;2022-09-20T16:47:08;99476.09;;;21.26;35.98
18527;BME280;9393;42.158;24.748;2022-09-20T16:50:12;99481.06;;;21.47;35.60
18527;BME280;9393;42.158;24.748;2022-09-20T16:53:15;99490.09;;;21.40;35.47
18527;BME280;9393;42.158;24.748;2022-09-20T16:56:19;99491.00;;;21.21;35.62
18527;BME280;9393;42.158;24.748;2022-09-20T16:59:25;99490.59;;;21.24;35.84
18527;BME280;9393;42.158;24.748;2022-09-20T17:02:28;99495.50;;;21.13;35.88
18527;BME280;9393;42.158;24.748;2022-09-20T17:05:31;99502.47;;;21.01;36.35
18527;BME280;9393;42.158;24.748;2022-09-20T17:08:35;99503.06;;;21.17;35.90
18527;BME280;9393;42.158;24.748;2022-09-20T17:11:42;99506.91;;;21.27;36.16
18527;BME280;9393;42.158;24.748;2022-09-20T17:14:47;99504.63;;;21.24;36.21